Time;durP1;ratioP1;P1;durP2;ratioP2;P2;SDS_P1;SDS_P2;PMS_P1;PMS_P2;Temp;Humidity;BMP_temperature;BMP_pressure;BME280_temperature;BME280_humidity;BME280_pressure;Samples;Min_cycle;Max_cycle;Signal;HPM_P1;HPM_P2
2023/09/18 00:02:53;;;;;;;10.15;8.90;;;;;;;24.47;52.92;100653.61;2289507;76;51465;-75
2023/09/18 00:05:55;;;;;;;9.75;8.10;;;;;;;24.48;52.88;100645.81;2318326;76;51432;-74
2023/09/18 00:08:57;;;;;;;9.70;8.13;;;;;;;24.48;52.86;100643.61;2280120;76;51427;-73
2023/09/18 00:11:59;;;;;;;8.83;7.92;;;;;;;24.47;52.92;100646.03;2279069;76;50082;-75
2023/09/18 00:15:02;;;;;;;8.98;8.08;;;;;;;24.48;52.86;100635.50;2305141;76;51429;-75
2023/09/18 00:18:05;;;;;;;9.30;8.35;;;;;;;24.48;52.90;100643.11;2305270;76;51452;-75
2023/09/18 00:21:07;;;;;;;9.10;8.08;;;;;;;24.48;52.83;100639.55;2280073;76;50308;-77
2023/09/18 00:24:09;;;;;;;8.68;7.80;;;;;;;24.47;52.75;100627.91;2318709;75;49978;-76
2023/09/18 00:27:11;;;;;;;8.93;8.03;;;;;;;24.46;52.76;100624.92;2276480;76;51676;-76
2023/09/18 00:30:14;;;;;;;9.18;8.15;;;;;;;24.46;52.71;100634.39;2255141;76;52459;-76
2023/09/18 00:33:16;;;;;;;9.53;8.55;;;;;;;24.45;52.73;100627.30;2306763;76;50327;-76
2023/09/18 00:36:18;;;;;;;8.90;7.90;;;;;;;24.45;52.72;100623.78;2319060;76;51462;-76
2023/09/18 00:39:20;;;;;;;8.30;7.50;;;;;;;24.44;52.76;100630.22;2306915;76;51395;-77
2023/09/18 00:42:23;;;;;;;8.43;7.60;;;;;;;24.44;52.72;100624.28;2318786;76;49950;-77
2023/09/18 00:45:25;;;;;;;9.65;7.60;;;;;;;24.44;52.69;100613.98;2318876;75;51445;-76
2023/09/18 00:48:28;;;;;;;8.28;7.47;;;;;;;24.42;52.67;100603.91;2306755;76;51475;-76
2023/09/18 00:51:30;;;;;;;8.98;7.95;;;;;;;24.42;52.63;100611.49;2305374;76;50285;-75
2023/09/18 00:54:32;;;;;;;8.60;7.55;;;;;;;24.44;52.64;100609.93;2306413;76;50909;-76
2023/09/18 00:57:35;;;;;;;9.78;8.35;;;;;;;24.41;52.61;100605.80;2292377;76;49919;-75
2023/09/18 01:00:38;;;;;;;9.55;7.85;;;;;;;24.41;52.60;100609.85;2280506;78;50644;-77
2023/09/18 01:03:40;;;;;;;8.55;7.65;;;;;;;24.41;52.57;100605.80;2268361;78;50281;-76
2023/09/18 01:06:43;;;;;;;9.23;7.70;;;;;;;24.41;52.51;100597.68;2280509;76;50228;-75
2023/09/18 01:09:45;;;;;;;8.15;7.35;;;;;;;24.41;52.48;100604.44;2280402;77;49992;-75
2023/09/18 01:13:13;;;;;;;9.35;8.10;;;;;;;24.41;52.48;100601.73;2268474;77;49947;-75
2023/09/18 01:16:16;;;;;;;7.72;6.95;;;;;;;24.41;52.48;100595.51;2246165;77;22362;-75
2023/09/18 01:19:19;;;;;;;8.13;7.33;;;;;;;24.40;52.45;100596.01;2267094;78;51948;-75
2023/09/18 01:22:22;;;;;;;8.28;7.40;;;;;;;24.40;52.43;100589.25;2251832;76;50352;-75
2023/09/18 01:25:24;;;;;;;7.90;7.10;;;;;;;24.38;52.43;100585.97;2304839;76;50670;-74
2023/09/18 01:28:27;;;;;;;8.00;7.25;;;;;;;24.39;52.38;100602.48;2293079;76;50278;-75
2023/09/18 01:31:29;;;;;;;9.70;7.50;;;;;;;24.38;52.34;100595.43;2291602;76;50419;-75
2023/09/18 01:34:41;;;;;;;8.48;7.60;;;;;;;24.38;52.33;100583.26;2266098;76;52519;-75
2023/09/18 01:37:42;;;;;;;8.78;7.87;;;;;;;24.38;52.33;100581.91;2294298;76;22318;-77
2023/09/18 01:40:44;;;;;;;8.20;7.40;;;;;;;24.37;52.31;100578.88;2317206;76;51442;-77
2023/09/18 01:43:46;;;;;;;9.45;7.20;;;;;;;24.37;52.29;100578.88;2316873;76;51277;-78
2023/09/18 01:46:51;;;;;;;8.13;7.30;;;;;;;24.37;52.26;100585.64;2317158;76;51472;-78
2023/09/18 01:49:53;;;;;;;8.93;7.45;;;;;;;24.37;52.25;100578.88;2317440;76;22192;-75
2023/09/18 01:52:55;;;;;;;8.15;7.20;;;;;;;24.37;52.21;100578.06;2289836;76;52038;-75
2023/09/18 01:55:57;;;;;;;8.20;7.40;;;;;;;24.35;52.19;100580.98;2225867;77;52067;-75
2023/09/18 01:58:59;;;;;;;8.18;7.37;;;;;;;24.34;52.21;100584.74;2225268;77;51515;-75
2023/09/18 02:02:07;;;;;;;8.30;7.42;;;;;;;24.34;52.19;100572.58;2289530;77;51217;-74
2023/09/18 02:05:05;;;;;;;7.87;7.08;;;;;;;24.33;52.15;100558.23;2255646;77;22488;-75
2023/09/18 02:08:08;;;;;;;7.30;6.65;;;;;;;24.33;52.14;100557.41;2201903;77;52348;-75
2023/09/18 02:11:10;;;;;;;8.18;6.70;;;;;;;24.33;52.11;100546.06;2256622;77;51576;-75
2023/09/18 02:14:12;;;;;;;8.25;7.42;;;;;;;24.33;52.08;100538.48;2289451;77;50177;-75
2023/09/18 02:17:14;;;;;;;7.70;6.97;;;;;;;24.34;52.03;100534.72;2256783;77;50243;-77
2023/09/18 02:20:18;;;;;;;7.03;6.33;;;;;;;24.34;52.05;100530.66;2289642;77;50278;-74
2023/09/18 02:23:20;;;;;;;7.72;6.92;;;;;;;24.32;52.05;100522.76;2270160;75;52647;-75
2023/09/18 02:26:23;;;;;;;7.65;6.95;;;;;;;24.33;52.02;100520.91;2249871;77;50714;-75
2023/09/18 02:29:25;;;;;;;7.25;6.58;;;;;;;24.33;52.04;100512.80;2249848;77;51614;-75
2023/09/18 02:32:27;;;;;;;7.25;6.55;;;;;;;24.32;52.04;100509.23;2201769;77;51208;-75
2023/09/18 02:35:30;;;;;;;9.03;6.60;;;;;;;24.33;52.01;100510.09;2225375;77;50393;-75
2023/09/18 02:38:33;;;;;;;7.53;6.83;;;;;;;24.32;51.96;100507.89;2256898;77;51569;-76
2023/09/18 02:41:35;;;;;;;7.17;6.58;;;;;;;24.31;51.96;100508.95;2225185;77;52236;-75
2023/09/18 02:44:38;;;;;;;6.90;6.30;;;;;;;24.30;51.98;100500.55;2289382;77;50615;-75
2023/09/18 02:47:41;;;;;;;7.25;6.55;;;;;;;24.30;51.97;100495.14;2225132;77;51199;-75
2023/09/18 02:50:43;;;;;;;6.65;6.05;;;;;;;24.30;51.92;100492.94;2225993;77;51546;-75
2023/09/18 02:53:45;;;;;;;7.25;6.55;;;;;;;24.28;51.87;100495.88;2288993;76;50653;-74
2023/09/18 02:56:48;;;;;;;9.75;6.70;;;;;;;24.29;51.87;100488.59;2209207;76;51205;-75
2023/09/18 02:59:50;;;;;;;6.65;6.05;;;;;;;24.29;51.87;100485.89;2294391;77;51526;-75
2023/09/18 03:02:53;;;;;;;6.95;6.30;;;;;;;24.29;51.89;100487.23;2272427;77;50664;-76
2023/09/18 03:05:57;;;;;;;7.85;6.53;;;;;;;24.27;51.85;100486.62;2248408;77;51464;-75
2023/09/18 03:08:59;;;;;;;7.78;6.97;;;;;;;24.26;51.80;100481.75;2273427;77;50282;-74
2023/09/18 03:12:02;;;;;;;7.12;6.17;;;;;;;24.27;51.78;100477.98;2248404;77;51801;-74
2023/09/18 03:15:06;;;;;;;7.70;6.95;;;;;;;24.27;51.79;100470.41;2248494;76;50355;-74
2023/09/18 03:18:08;;;;;;;8.90;6.85;;;;;;;24.26;51.77;100454.72;2273817;77;51611;-75
2023/09/18 03:21:10;;;;;;;6.95;6.25;;;;;;;24.27;51.72;100462.30;2273198;77;49988;-74
2023/09/18 03:24:13;;;;;;;7.33;6.62;;;;;;;24.26;51.71;100457.95;2291830;76;50274;-75
2023/09/18 03:27:15;;;;;;;7.25;6.65;;;;;;;24.26;51.71;100453.89;2299011;76;50544;-75
2023/09/18 03:30:18;;;;;;;6.72;6.10;;;;;;;24.26;51.68;100457.95;2248570;77;50162;-74
2023/09/18 03:33:20;;;;;;;7.40;6.70;;;;;;;24.24;51.66;100447.35;2294066;76;50288;-75
2023/09/18 03:36:26;;;;;;;7.30;6.17;;;;;;;24.25;51.60;100456.28;2248439;76;49424;-75
2023/09/18 03:39:28;;;;;;;;;;;;;;;24.24;51.59;100454.11;2252456;77;50165;-74
2023/09/18 03:42:30;;;;;;;8.83;6.60;;;;;;;24.26;51.63;100441.73;2294315;76;51512;-73
2023/09/18 03:45:32;;;;;;;6.90;6.25;;;;;;;24.24;51.58;100446.00;2237130;77;51068;-74
2023/09/18 03:48:37;;;;;;;9.20;6.62;;;;;;;24.24;51.56;100453.29;2248573;77;50014;-74
2023/09/18 03:51:39;;;;;;;6.87;6.28;;;;;;;24.23;51.55;100447.59;2294942;76;50342;-75
2023/09/18 03:54:41;;;;;;;8.90;6.97;;;;;;;24.22;51.56;100452.68;2260333;76;50621;-74
2023/09/18 03:57:45;;;;;;;7.53;6.45;;;;;;;24.22;51.52;100447.27;2297860;76;51430;-74
2023/09/18 04:00:49;;;;;;;6.83;6.22;;;;;;;24.21;51.50;100446.45;2325837;76;50019;-77
2023/09/18 04:03:51;;;;;;;7.50;6.80;;;;;;;24.21;51.51;100448.34;2292572;76;52530;-73
2023/09/18 04:06:55;;;;;;;7.33;6.62;;;;;;;24.20;51.48;100428.59;2294520;76;50273;-74
2023/09/18 04:09:57;;;;;;;7.80;6.65;;;;;;;24.20;51.50;100430.45;2269024;76;51146;-74
2023/09/18 04:12:59;;;;;;;9.68;7.10;;;;;;;24.19;51.44;100424.75;2325648;76;50446;-75
2023/09/18 04:16:03;;;;;;;7.50;6.80;;;;;;;24.19;51.45;100422.05;2294321;76;50999;-74
2023/09/18 04:19:05;;;;;;;7.25;6.55;;;;;;;24.19;51.38;100423.40;2294817;76;22935;-76
2023/09/18 04:22:08;;;;;;;7.10;6.40;;;;;;;24.18;51.34;100415.00;2269158;76;51464;-76
2023/09/18 04:25:10;;;;;;;7.70;7.00;;;;;;;24.17;51.35;100418.20;2290552;76;50671;-75
2023/09/18 04:28:13;;;;;;;7.05;5.85;;;;;;;24.18;51.34;100408.24;2269376;75;51447;-74
2023/09/18 04:31:16;;;;;;;7.78;6.40;;;;;;;24.17;51.32;100407.92;2291474;76;51570;-77
2023/09/18 04:34:18;;;;;;;7.47;6.78;;;;;;;24.15;51.33;100405.47;2295538;75;50586;-76
2023/09/18 04:37:21;;;;;;;7.12;6.42;;;;;;;24.16;51.32;100402.23;2327824;76;50633;-74
2023/09/18 04:40:23;;;;;;;8.18;6.95;;;;;;;24.15;51.33;100399.20;2291251;76;51415;-75
2023/09/18 04:43:26;;;;;;;8.78;6.55;;;;;;;24.16;51.30;100407.11;2295885;76;51213;-75
2023/09/18 04:46:29;;;;;;;7.03;6.30;;;;;;;24.16;51.28;100402.23;2265920;76;50622;-74
2023/09/18 04:49:33;;;;;;;7.28;6.58;;;;;;;24.16;51.26;100398.17;2266551;76;50775;-75
2023/09/18 04:52:35;;;;;;;8.00;6.50;;;;;;;24.15;51.27;100389.25;2262882;76;51615;-75
2023/09/18 04:55:38;;;;;;;6.62;6.03;;;;;;;24.15;51.25;100391.09;2287151;75;50778;-74
2023/09/18 04:58:40;;;;;;;6.30;5.70;;;;;;;24.16;51.26;100398.17;2265915;76;50935;-75
2023/09/18 05:01:43;;;;;;;9.08;6.45;;;;;;;24.13;51.23;100394.86;2294168;76;51544;-74
2023/09/18 05:04:46;;;;;;;7.90;6.87;;;;;;;24.13;51.23;100388.11;2300000;76;50782;-75
2023/09/18 05:07:48;;;;;;;6.92;5.83;;;;;;;24.13;51.21;100385.41;2280931;76;52385;-75
2023/09/18 05:10:51;;;;;;;6.95;6.30;;;;;;;24.12;51.21;100385.12;2279537;76;50002;-75
2023/09/18 05:13:53;;;;;;;8.60;6.78;;;;;;;24.12;51.18;100391.88;2306250;76;50121;-75
2023/09/18 05:16:55;;;;;;;7.45;6.37;;;;;;;24.11;51.19;100390.20;2304941;76;50491;-75
2023/09/18 05:19:57;;;;;;;9.25;6.10;;;;;;;24.12;51.17;100385.12;2304986;76;50146;-77
2023/09/18 05:23:01;;;;;;;6.87;6.10;;;;;;;24.11;51.18;100380.75;2280041;76;51660;-77
2023/09/18 05:26:03;;;;;;;8.15;6.33;;;;;;;24.12;51.21;100382.41;2306054;76;51480;-76
2023/09/18 05:29:06;;;;;;;7.17;6.47;;;;;;;24.12;51.14;100382.41;2318630;76;50344;-78
2023/09/18 05:32:08;;;;;;;7.47;6.42;;;;;;;24.12;51.17;100381.56;2279089;76;49565;-79
2023/09/18 05:35:12;;;;;;;6.92;6.20;;;;;;;24.12;51.19;100371.60;2296859;76;50734;-76
2023/09/18 05:38:15;;;;;;;7.10;6.35;;;;;;;24.12;51.19;100368.90;2268992;75;22476;-78
2023/09/18 05:41:17;;;;;;;7.22;6.05;;;;;;;24.12;51.22;100372.95;2247521;76;51624;-78
2023/09/18 05:44:20;;;;;;;6.67;5.83;;;;;;;24.11;51.23;100368.58;2315361;76;50821;-77
2023/09/18 05:47:23;;;;;;;7.78;6.00;;;;;;;24.11;51.23;100369.94;2266235;76;51303;-77
2023/09/18 05:50:27;;;;;;;9.53;6.03;;;;;;;24.14;51.21;100356.48;2270107;76;51551;-76
2023/09/18 05:53:30;;;;;;;8.55;6.55;;;;;;;24.15;51.21;100355.45;2282460;77;22961;-77
2023/09/18 05:56:32;;;;;;;7.78;5.25;;;;;;;24.17;51.27;100344.39;2256363;76;52475;-77
2023/09/18 05:59:35;;;;;;;6.50;5.58;;;;;;;24.17;51.39;100344.39;2307030;75;51504;-77
2023/09/18 06:02:37;;;;;;;9.55;6.20;;;;;;;24.16;51.52;100338.17;2319875;76;49975;-75
2023/09/18 06:05:39;;;;;;;10.18;6.05;;;;;;;24.21;51.53;100332.09;2278443;76;50510;-78
2023/09/18 06:08:41;;;;;;;9.25;5.75;;;;;;;24.22;51.46;100321.02;2285652;76;50710;-78
2023/09/18 06:11:43;;;;;;;7.78;5.78;;;;;;;24.23;51.49;100320.52;2280949;76;50184;-78
2023/09/18 06:14:47;;;;;;;6.50;5.87;;;;;;;24.26;51.42;100313.30;2268861;78;50628;-77
2023/09/18 06:17:50;;;;;;;6.62;5.90;;;;;;;24.27;51.38;100313.59;2280950;77;51519;-77
2023/09/18 06:20:52;;;;;;;6.83;6.12;;;;;;;24.29;51.41;100312.84;2284441;76;51275;-77
2023/09/18 06:23:54;;;;;;;6.53;5.85;;;;;;;24.31;51.41;100313.44;2280714;77;50221;-78
2023/09/18 06:26:56;;;;;;;8.48;6.15;;;;;;;24.33;51.28;100309.98;2268925;77;50690;-79
2023/09/18 06:29:58;;;;;;;12.05;7.15;;;;;;;24.41;50.85;100311.01;2288410;76;50587;-77
2023/09/18 06:33:01;;;;;;;11.10;7.70;;;;;;;24.32;50.76;100311.84;2284920;76;50799;-78
2023/09/18 06:36:04;;;;;;;10.82;6.92;;;;;;;24.22;50.99;100302.63;2310448;76;50303;-76
2023/09/18 06:39:07;;;;;;;10.63;6.87;;;;;;;24.21;51.23;100303.70;2286749;77;50391;-78
2023/09/18 06:42:09;;;;;;;11.43;6.90;;;;;;;24.20;51.08;100295.27;2281232;78;50104;-77
2023/09/18 06:45:13;;;;;;;10.18;6.75;;;;;;;23.99;51.54;100292.01;2257271;78;51713;-77
2023/09/18 06:48:16;;;;;;;10.88;6.47;;;;;;;23.97;51.66;100282.48;2233674;78;50695;-77
2023/09/18 06:51:19;;;;;;;10.15;7.10;;;;;;;24.04;51.66;100285.39;2258028;78;51588;-78
2023/09/18 06:54:21;;;;;;;7.58;6.47;;;;;;;24.06;51.61;100273.83;2287689;76;50483;-78
2023/09/18 06:57:23;;;;;;;12.63;7.35;;;;;;;24.13;51.51;100274.57;2326685;76;50336;-77
2023/09/18 07:00:26;;;;;;;9.30;6.47;;;;;;;24.15;51.51;100268.95;2267976;76;51697;-77
2023/09/18 07:03:28;;;;;;;8.48;6.62;;;;;;;24.02;51.77;100269.95;2292618;76;50655;-77
2023/09/18 07:06:30;;;;;;;7.83;6.28;;;;;;;24.16;51.61;100271.13;2282093;76;50707;-76
2023/09/18 07:09:33;;;;;;;8.80;6.45;;;;;;;24.04;52.00;100262.95;2295765;76;51669;-76
2023/09/18 07:12:36;;;;;;;11.68;6.83;;;;;;;24.00;52.09;100260.42;2294813;76;50274;-76
2023/09/18 07:15:38;;;;;;;7.60;6.05;;;;;;;24.02;51.93;100248.34;2294714;76;51513;-76
2023/09/18 07:18:40;;;;;;;10.45;6.67;;;;;;;24.03;52.19;100244.56;2288007;76;51414;-78
2023/09/18 07:21:43;;;;;;;13.22;6.15;;;;;;;24.21;52.06;100235.58;2252650;77;52367;-75
2023/09/18 07:24:45;;;;;;;12.85;6.35;;;;;;;24.23;51.95;100237.53;2232684;77;52529;-75
2023/09/18 07:27:48;;;;;;;16.82;7.12;;;;;;;24.30;52.27;100238.77;2228817;77;50391;-75
2023/09/18 07:30:50;;;;;;;27.30;6.60;;;;;;;24.34;52.31;100238.08;2288497;77;50360;-76
2023/09/18 07:33:53;;;;;;;20.48;6.58;;;;;;;24.39;52.37;100236.04;2261796;76;51310;-76
2023/09/18 07:36:56;;;;;;;13.72;6.80;;;;;;;24.42;52.33;100232.87;2303003;76;51541;-76
2023/09/18 07:39:58;;;;;;;10.32;5.78;;;;;;;24.46;52.39;100227.33;2302908;77;50670;-76
2023/09/18 07:43:01;;;;;;;9.53;6.33;;;;;;;24.50;52.35;100227.14;2258401;77;50342;-77
2023/09/18 07:46:03;;;;;;;16.10;6.97;;;;;;;24.53;52.33;100230.77;2283624;77;50696;-76
2023/09/18 07:49:05;;;;;;;17.30;6.58;;;;;;;24.57;52.25;100228.41;2257943;77;50949;-76
2023/09/18 07:52:07;;;;;;;34.35;7.42;;;;;;;24.55;52.48;100227.27;2283293;77;50597;-76
2023/09/18 07:55:09;;;;;;;22.80;6.70;;;;;;;24.59;52.28;100230.35;2276881;77;50287;-75
2023/09/18 07:58:12;;;;;;;24.10;7.08;;;;;;;24.60;52.46;100226.58;2244865;77;50983;-75
2023/09/18 08:01:16;;;;;;;25.27;6.70;;;;;;;24.62;52.27;100227.17;2291008;77;50677;-76
2023/09/18 08:04:18;;;;;;;18.37;6.78;;;;;;;24.61;52.24;100228.75;2297272;76;22989;-76
2023/09/18 08:07:20;;;;;;;26.48;7.17;;;;;;;24.63;52.19;100221.23;2269620;77;51587;-76
2023/09/18 08:10:23;;;;;;;22.05;7.10;;;;;;;24.65;52.20;100224.53;2291101;77;51526;-75
2023/09/18 08:13:25;;;;;;;26.55;7.10;;;;;;;24.67;52.32;100219.18;2245031;77;51626;-75
2023/09/18 08:16:29;;;;;;;21.77;7.17;;;;;;;24.64;52.38;100210.72;2245016;77;51408;-76
2023/09/18 08:19:36;;;;;;;29.57;8.10;;;;;;;24.63;52.41;100208.52;2245914;77;50323;-75
2023/09/18 08:22:38;;;;;;;55.58;8.98;;;;;;;24.66;52.34;100208.58;2269083;77;51707;-75
2023/09/18 08:25:41;;;;;;;37.28;8.63;;;;;;;24.67;52.41;100200.24;2269375;77;50686;-77
2023/09/18 08:28:43;;;;;;;31.27;7.50;;;;;;;24.69;52.57;100201.38;2290940;77;50427;-75
2023/09/18 08:31:46;;;;;;;36.63;8.23;;;;;;;24.74;52.87;100197.44;2270086;77;51558;-74
2023/09/18 08:34:48;;;;;;;25.02;6.90;;;;;;;24.76;53.08;100182.61;2290001;76;49953;-76
2023/09/18 08:37:50;;;;;;;33.45;7.45;;;;;;;24.79;52.91;100188.08;2269717;77;51717;-77
2023/09/18 08:40:55;;;;;;;28.17;7.25;;;;;;;24.82;53.06;100189.49;2270036;77;50534;-75
2023/09/18 08:43:59;;;;;;;28.32;7.60;;;;;;;24.84;52.94;100195.47;2291044;77;50415;-75
2023/09/18 08:47:02;;;;;;;23.35;7.65;;;;;;;24.83;52.65;100196.00;2269030;77;50949;-77
2023/09/18 08:50:04;;;;;;;31.90;7.55;;;;;;;24.82;52.66;100190.31;2291402;77;51510;-75
2023/09/18 08:53:06;;;;;;;43.63;8.50;;;;;;;24.80;52.60;100187.02;2288690;77;50238;-76
2023/09/18 08:56:09;;;;;;;90.42;10.80;;;;;;;24.81;52.60;100179.17;2252376;77;51728;-75
2023/09/18 08:59:11;;;;;;;37.75;8.10;;;;;;;24.75;52.89;100180.95;2285783;77;51497;-76
2023/09/18 09:02:14;;;;;;;39.58;8.03;;;;;;;24.74;53.13;100175.79;2260153;76;51697;-77
2023/09/18 09:05:16;;;;;;;39.15;7.78;;;;;;;24.75;53.46;100155.78;2331889;75;50311;-76
2023/09/18 09:08:19;;;;;;;37.38;8.10;;;;;;;24.74;53.31;100149.55;2331953;76;50303;-75
2023/09/18 09:11:21;;;;;;;23.05;7.55;;;;;;;24.78;53.00;100149.89;2332484;76;50467;-77
2023/09/18 09:14:32;;;;;;;38.25;7.78;;;;;;;24.82;52.69;100142.95;2284718;77;50640;-77
2023/09/18 09:17:27;;;;;;;39.18;8.00;;;;;;;24.81;52.60;100140.47;2289458;76;21861;-76
2023/09/18 09:20:29;;;;;;;46.55;9.10;;;;;;;24.75;52.69;100130.08;2296269;76;51239;-76
2023/09/18 09:23:37;;;;;;;35.35;8.43;;;;;;;24.72;52.72;100129.20;2332327;76;50345;-76
2023/09/18 09:26:40;;;;;;;29.65;7.90;;;;;;;24.74;52.62;100119.79;2325587;76;50318;-75
2023/09/18 09:29:42;;;;;;;26.82;7.30;;;;;;;24.72;52.61;100118.37;2295792;76;51073;-74
2023/09/18 09:32:46;;;;;;;37.78;7.45;;;;;;;24.73;52.53;100114.60;2297024;76;51372;-75
2023/09/18 09:35:48;;;;;;;26.05;7.80;;;;;;;24.71;52.49;100107.24;2312501;76;51491;-75
2023/09/18 09:38:57;;;;;;;23.65;6.83;;;;;;;24.71;52.48;100105.39;2288585;76;51566;-76
2023/09/18 09:42:03;;;;;;;26.45;7.35;;;;;;;24.71;52.46;100100.48;2320331;76;51558;-75
2023/09/18 09:45:08;;;;;;;27.70;7.12;;;;;;;24.69;52.46;100098.56;2319735;76;51498;-75
2023/09/18 09:48:10;;;;;;;28.95;6.65;;;;;;;24.70;52.43;100101.55;2319185;76;50496;-75
2023/09/18 09:51:15;;;;;;;19.90;7.25;;;;;;;24.71;52.43;100110.80;2318792;76;50624;-75
2023/09/18 09:54:20;;;;;;;21.87;6.28;;;;;;;24.72;52.40;100121.08;2262991;76;52753;-76
2023/09/18 09:57:22;;;;;;;;;;;;;;;24.74;52.37;100118.44;2334226;76;51481;-75
2023/09/18 10:00:31;;;;;;;33.90;8.70;;;;;;;24.76;52.41;100112.27;2332404;76;50670;-77
2023/09/18 10:03:30;;;;;;;25.75;7.85;;;;;;;24.75;52.51;100104.37;2313379;75;22281;-76
2023/09/18 10:06:32;;;;;;;24.23;8.20;;;;;;;24.74;52.50;100107.61;2313144;76;51474;-76
2023/09/18 10:09:35;;;;;;;26.85;9.35;;;;;;;24.74;52.49;100100.03;2308163;75;52553;-76
2023/09/18 10:12:38;;;;;;;26.05;9.80;;;;;;;24.75;52.41;100093.55;2315410;75;51533;-75
2023/09/18 10:15:42;;;;;;;22.37;9.80;;;;;;;24.78;52.34;100077.65;2328599;75;50673;-76
2023/09/18 10:18:53;;;;;;;25.17;10.82;;;;;;;24.77;52.33;100072.49;2316665;75;22417;-76
2023/09/18 10:22:13;;;;;;;27.90;13.68;;;;;;;24.80;52.31;100078.78;2352408;75;51619;-75
2023/09/18 10:25:28;;;;;;;29.95;13.95;;;;;;;24.76;52.37;100070.83;2350981;75;51302;-76
2023/09/18 10:28:31;;;;;;;37.73;16.50;;;;;;;24.78;52.45;100076.30;2344549;75;51007;-76
2023/09/18 10:31:34;;;;;;;28.85;13.25;;;;;;;24.77;52.38;100087.38;2351106;75;50775;-76
2023/09/18 10:34:37;;;;;;;35.30;13.68;;;;;;;24.76;52.36;100096.53;2350765;75;50797;-76
2023/09/18 10:37:39;;;;;;;30.60;14.65;;;;;;;24.80;52.31;100105.83;2294847;75;51596;-76
2023/09/18 10:40:42;;;;;;;31.77;14.93;;;;;;;24.77;52.37;100107.66;2354224;75;50860;-76
2023/09/18 10:43:47;;;;;;;33.48;16.65;;;;;;;24.76;52.36;100095.18;2350234;75;51552;-75
2023/09/18 10:46:51;;;;;;;27.10;14.47;;;;;;;24.75;52.39;100110.59;2343474;75;22274;-77
2023/09/18 10:49:54;;;;;;;31.45;16.35;;;;;;;24.74;52.40;100106.80;2346284;75;51556;-77
2023/09/18 10:53:01;;;;;;;33.50;16.90;;;;;;;24.74;52.39;100100.03;2284749;75;51706;-74
2023/09/18 10:56:06;;;;;;;29.87;16.65;;;;;;;24.73;52.41;100093.77;2352727;75;50700;-75
2023/09/18 10:59:08;;;;;;;33.67;16.50;;;;;;;24.74;52.39;100095.97;2345611;76;50732;-76
2023/09/18 11:02:20;;;;;;;31.52;17.12;;;;;;;24.73;52.39;100082.13;2325724;76;50773;-77
2023/09/18 11:05:29;;;;;;;33.58;17.95;;;;;;;24.75;52.38;100084.08;2342552;75;21752;-75
2023/09/18 11:08:34;;;;;;;37.25;16.20;;;;;;;24.72;52.77;100078.61;2342205;75;51519;-75
2023/09/18 11:11:36;;;;;;;;;;;;;;;24.74;52.56;100087.32;2346390;76;49679;-75
2023/09/18 11:14:57;;;;;;;42.55;17.77;;;;;;;24.70;52.81;100087.48;2330179;76;51568;-76
2023/09/18 11:18:00;;;;;;;38.83;16.60;;;;;;;24.73;52.83;100088.89;2295042;77;51232;-76
2023/09/18 11:21:12;;;;;;;38.75;17.62;;;;;;;24.70;53.07;100089.38;2302434;77;51585;-75
2023/09/18 11:24:23;;;;;;;52.43;18.85;;;;;;;24.72;53.14;100099.44;2301966;77;50759;-76
2023/09/18 11:27:26;;;;;;;61.63;20.20;;;;;;;24.75;53.15;100098.95;2283249;77;52220;-76
2023/09/18 11:30:28;;;;;;;68.65;21.05;;;;;;;24.73;53.37;100097.02;2308750;76;51593;-76
2023/09/18 11:33:37;;;;;;;68.12;21.30;;;;;;;24.74;53.60;100099.49;2341511;76;50483;-77
2023/09/18 11:36:39;;;;;;;80.75;21.95;;;;;;;24.73;53.71;100099.72;2340951;75;50312;-76
2023/09/18 11:39:43;;;;;;;64.67;22.73;;;;;;;24.71;53.83;100101.83;2341934;76;50619;-77
2023/09/18 11:43:10;;;;;;;52.80;19.07;;;;;;;24.71;53.79;100109.45;2320892;76;22306;-77
2023/09/18 11:46:12;;;;;;;50.17;17.05;;;;;;;24.75;53.84;100103.83;2263486;78;50269;-76
2023/09/18 11:49:14;;;;;;;47.53;16.77;;;;;;;24.78;53.72;100105.24;2261582;78;50285;-77
2023/09/18 11:52:17;;;;;;;41.40;15.32;;;;;;;24.78;54.36;100102.53;2235321;78;51710;-75
2023/09/18 11:55:20;;;;;;;22.00;10.50;;;;;;;24.76;54.40;100096.03;2261734;78;51565;-78
2023/09/18 11:58:23;;;;;;;19.05;9.88;;;;;;;24.82;53.72;100090.73;2193660;80;50211;-78
2023/09/18 12:01:26;;;;;;;18.27;8.15;;;;;;;24.83;53.28;100093.17;2213238;78;51702;-77
2023/09/18 12:04:31;;;;;;;13.05;7.75;;;;;;;24.90;52.76;100083.59;2262326;78;50654;-78
2023/09/18 12:07:33;;;;;;;;;;;;;;;24.89;52.38;100088.18;2216725;78;50195;-77
2023/09/18 12:10:35;;;;;;;8.55;6.37;;;;;;;24.94;52.33;100086.91;2262582;78;51453;-77
2023/09/18 12:13:37;;;;;;;11.38;7.42;;;;;;;24.78;52.47;100088.47;2255231;78;51418;-77
2023/09/18 12:16:39;;;;;;;8.05;6.80;;;;;;;24.87;52.44;100082.72;2269512;77;52503;-77
2023/09/18 12:19:56;;;;;;;10.23;6.80;;;;;;;24.95;52.21;100077.73;2284114;77;52358;-77
2023/09/18 12:22:58;;;;;;;10.25;6.20;;;;;;;24.97;51.79;100078.33;2303308;77;50748;-77
2023/09/18 12:26:01;;;;;;;13.32;6.90;;;;;;;24.99;51.68;100074.02;2259060;77;52409;-78
2023/09/18 12:29:04;;;;;;;11.25;6.03;;;;;;;24.97;51.61;100067.50;2303681;77;51520;-78
2023/09/18 12:32:10;;;;;;;8.15;5.95;;;;;;;25.04;51.55;100064.64;2303853;77;50204;-77
2023/09/18 12:35:18;;;;;;;9.98;6.20;;;;;;;24.94;51.49;100057.67;2303456;77;51588;-78
2023/09/18 12:38:24;;;;;;;11.38;6.55;;;;;;;24.98;51.48;100062.37;2303904;77;51516;-78
2023/09/18 12:41:26;;;;;;;14.13;6.55;;;;;;;24.94;51.55;100056.31;2303863;77;22314;-79
2023/09/18 12:44:28;;;;;;;8.65;6.03;;;;;;;24.96;51.43;100059.08;2320046;76;50177;-78
2023/09/18 12:47:31;;;;;;;8.48;5.90;;;;;;;24.96;51.32;100055.55;2339030;76;51515;-78
2023/09/18 12:50:34;;;;;;;8.45;6.25;;;;;;;25.04;51.06;100057.87;2343162;76;51560;-77
2023/09/18 12:53:37;;;;;;;7.10;6.35;;;;;;;24.98;51.21;100056.95;2296587;76;50368;-78
2023/09/18 12:56:43;;;;;;;9.60;5.70;;;;;;;24.96;51.40;100052.31;2319247;76;51539;-78
2023/09/18 12:59:46;;;;;;;8.15;5.97;;;;;;;24.99;51.13;100045.59;2319847;76;50739;-77
2023/09/18 13:02:55;;;;;;;9.50;5.95;;;;;;;25.05;51.06;100056.83;2319126;76;51505;-78
2023/09/18 13:05:55;;;;;;;8.87;6.00;;;;;;;24.92;51.24;100051.16;2318706;76;22408;-78
2023/09/18 13:08:57;;;;;;;10.60;5.17;;;;;;;24.93;51.35;100065.51;2319806;76;24729;-77
2023/09/18 13:12:00;;;;;;;7.67;5.47;;;;;;;24.92;51.27;100082.28;2280431;76;50716;-78
2023/09/18 13:15:04;;;;;;;6.08;5.17;;;;;;;24.87;51.19;100087.59;2301497;76;51656;-78
2023/09/18 13:18:12;;;;;;;9.58;4.97;;;;;;;24.80;51.46;100082.83;2319922;76;50354;-79
2023/09/18 13:21:14;;;;;;;13.13;5.90;;;;;;;24.76;51.87;100078.44;2319302;75;50261;-77
2023/09/18 13:24:29;;;;;;;7.33;5.03;;;;;;;24.83;51.95;100098.59;2280302;76;51456;-78
2023/09/18 13:27:32;;;;;;;10.75;5.37;;;;;;;24.85;52.04;100088.36;2306085;76;50104;-79
2023/09/18 13:30:35;;;;;;;8.20;5.20;;;;;;;24.85;52.17;100084.30;2307439;76;51145;-79
2023/09/18 13:33:40;;;;;;;9.00;5.08;;;;;;;24.77;52.39;100077.37;2305913;76;50292;-78
2023/09/18 13:36:42;;;;;;;;;;;;;;;24.75;52.49;100075.42;2283331;76;51751;-79
2023/09/18 13:39:45;;;;;;;10.72;5.47;;;;;;;24.79;52.37;100087.97;2333764;76;52490;-77
2023/09/18 13:42:48;;;;;;;13.65;5.90;;;;;;;24.76;52.72;100087.06;2303694;76;51692;-77
2023/09/18 13:45:54;;;;;;;17.52;6.15;;;;;;;24.75;54.37;100091.66;2268176;78;50303;-76
2023/09/18 13:48:57;;;;;;;9.80;5.87;;;;;;;24.76;54.91;100084.36;2298788;75;50072;-76
2023/09/18 13:52:00;;;;;;;12.85;6.30;;;;;;;24.79;54.70;100075.79;2281079;77;50710;-76
2023/09/18 13:55:05;;;;;;;12.20;6.08;;;;;;;24.80;55.17;100073.90;2280979;76;50137;-77
2023/09/18 13:58:09;;;;;;;9.25;6.15;;;;;;;24.82;55.55;100071.25;2234501;77;50730;-77
2023/09/18 14:01:11;;;;;;;14.63;6.30;;;;;;;24.84;55.57;100058.81;2319785;76;50787;-76
2023/09/18 14:04:15;;;;;;;14.47;6.67;;;;;;;24.86;55.73;100056.16;2305021;76;51000;-77
2023/09/18 14:07:17;;;;;;;22.05;6.42;;;;;;;24.87;56.02;100053.77;2267119;76;50712;-77
2023/09/18 14:10:21;;;;;;;17.67;6.33;;;;;;;24.88;56.03;100050.52;2297187;76;51455;-74